createdAt,value
2022-09-29T00:04:37.352Z,22.4
2022-09-29T00:10:13.565Z,22.4
2022-09-29T00:15:54.938Z,22.4
2022-09-29T00:21:54.170Z,22.4
2022-09-29T00:27:31.449Z,22.4
2022-09-29T00:33:08.884Z,22.3
2022-09-29T00:38:46.191Z,22.3
2022-09-29T00:44:23.703Z,22.3
2022-09-29T00:49:45.730Z,22.3
2022-09-29T00:55:24.135Z,22.3
2022-09-29T01:00:45.682Z,22.3
2022-09-29T01:06:22.804Z,22.2
2022-09-29T01:11:44.810Z,22.3
2022-09-29T01:17:06.506Z,22.3
2022-09-29T01:22:43.291Z,22.3
2022-09-29T01:28:05.523Z,22.2
2022-09-29T01:33:43.250Z,22.2
2022-09-29T01:39:20.077Z,22.2
2022-09-29T01:44:58.457Z,22.2
2022-09-29T01:50:35.302Z,22.2
2022-09-29T01:56:11.397Z,22.1
2022-09-29T02:01:49.983Z,22.1
2022-09-29T02:07:27.053Z,22.1
2022-09-29T02:13:03.681Z,22.1
2022-09-29T02:18:26.716Z,22.1
2022-09-29T02:23:46.916Z,22.1
2022-09-29T02:29:24.370Z,22.1
2022-09-29T02:34:47.476Z,22.1
2022-09-29T02:39:38.499Z,22.1
2022-09-29T02:45:00.606Z,22.1
2022-09-29T02:50:23.043Z,22.1
2022-09-29T02:55:59.738Z,22.1
2022-09-29T03:01:39.429Z,22.1
2022-09-29T03:07:17.218Z,22.1
2022-09-29T03:12:38.202Z,22.1
2022-09-29T03:18:00.807Z,22.1
2022-09-29T03:23:38.481Z,22.1
2022-09-29T03:29:17.714Z,22.1
2022-09-29T03:34:55.391Z,22.1
2022-09-29T03:40:33.318Z,22.1
2022-09-29T03:46:11.315Z,22
2022-09-29T03:51:49.583Z,22
2022-09-29T03:57:27.009Z,22
2022-09-29T04:03:10.357Z,22
2022-09-29T04:08:47.225Z,22
2022-09-29T04:14:09.898Z,22
2022-09-29T04:19:31.333Z,22
2022-09-29T04:25:09.251Z,22
2022-09-29T04:30:47.499Z,22
2022-09-29T04:36:26.653Z,22
2022-09-29T04:42:04.127Z,22
2022-09-29T04:47:42.327Z,22
2022-09-29T04:53:23.940Z,22
2022-09-29T04:59:06.189Z,21.9
2022-09-29T05:04:48.970Z,21.9
2022-09-29T05:10:14.072Z,21.9
2022-09-29T05:15:57.924Z,21.9
2022-09-29T05:22:12.205Z,21.9
2022-09-29T05:27:49.581Z,21.9
2022-09-29T05:33:31.885Z,21.9
2022-09-29T05:39:10.380Z,21.9
2022-09-29T05:44:50.239Z,21.9
2022-09-29T05:50:12.536Z,21.9
2022-09-29T05:55:54.578Z,21.9
2022-09-29T06:01:33.501Z,21.9
2022-09-29T06:07:15.158Z,21.8
2022-09-29T06:12:54.972Z,37.5
2022-09-29T06:18:31.953Z,32.4
2022-09-29T06:24:13.720Z,29.1
2022-09-29T06:29:51.979Z,38.1
2022-09-29T06:35:31.778Z,37.2
2022-09-29T06:41:09.141Z,38.6
2022-09-29T06:46:47.625Z,40.6
2022-09-29T06:53:37.670Z,39.8
2022-09-29T06:59:28.175Z,36.6
2022-09-29T07:05:07.680Z,36.6
2022-09-29T07:11:09.445Z,36.4
2022-09-29T07:16:47.462Z,38.2
2022-09-29T07:22:25.926Z,40.8
2022-09-29T07:28:26.927Z,41.5
2022-09-29T07:35:04.768Z,41.2
2022-09-29T07:40:45.494Z,42.3
2022-09-29T07:46:24.616Z,39
2022-09-29T07:52:02.863Z,38.4
2022-09-29T07:57:40.969Z,39.3
2022-09-29T08:03:20.820Z,39.3
2022-09-29T08:09:16.838Z,42.4
2022-09-29T08:15:50.939Z,43.5
2022-09-29T08:21:30.495Z,44.6
2022-09-29T08:27:44.872Z,44.1
2022-09-29T08:34:15.874Z,42.4
2022-09-29T08:39:53.400Z,42.3
2022-09-29T08:46:20.828Z,41.9
2022-09-29T08:53:36.293Z,45.7
2022-09-29T08:59:50.729Z,45.7
2022-09-29T09:05:31.877Z,49.1
2022-09-29T09:11:12.695Z,54.1
2022-09-29T09:16:50.224Z,54.2
2022-09-29T09:22:30.528Z,54.9
2022-09-29T09:28:12.252Z,51.4
2022-09-29T09:34:19.045Z,47.4
2022-09-29T09:40:49.558Z,45.9
2022-09-29T09:46:32.348Z,49.6
2022-09-29T09:57:50.597Z,48.5
2022-09-29T10:03:29.522Z,50.8
2022-09-29T10:09:08.260Z,46.6
2022-09-29T10:15:01.676Z,42.3
2022-09-29T10:20:40.560Z,39.8
2022-09-29T10:26:16.554Z,58.1
2022-09-29T10:31:54.606Z,53.6
2022-09-29T10:37:17.236Z,49.9
2022-09-29T10:42:45.113Z,47.6
2022-09-29T10:48:23.169Z,55
2022-09-29T10:54:02.849Z,54.1
2022-09-29T11:00:12.605Z,57.8
2022-09-29T11:05:34.744Z,58.4
2022-09-29T11:11:16.783Z,58.5
2022-09-29T11:16:57.171Z,58.6
2022-09-29T11:22:34.273Z,57.5
2022-09-29T11:28:12.600Z,57.6
2022-09-29T11:33:52.783Z,58.5
2022-09-29T11:39:30.883Z,57.9
2022-09-29T11:45:09.550Z,55.8
2022-09-29T11:50:48.582Z,55.3
2022-09-29T11:56:26.200Z,57.3
2022-09-29T12:02:08.383Z,59.4
2022-09-29T12:07:50.209Z,59.8
2022-09-29T12:14:23.746Z,54.9
2022-09-29T12:20:04.268Z,49
2022-09-29T12:25:49.111Z,44.2
2022-09-29T12:31:26.866Z,41.3
2022-09-29T12:37:08.537Z,39.6
2022-09-29T12:42:51.199Z,38.1
2022-09-29T12:48:04.996Z,36.9
2022-09-29T12:53:43.625Z,35.9
2022-09-29T12:59:05.792Z,35
2022-09-29T13:04:48.342Z,34.3
2022-09-29T13:10:27.330Z,33.5
2022-09-29T13:16:04.856Z,32.9
2022-09-29T13:22:30.358Z,32.3
2022-09-29T13:28:11.004Z,31.8
2022-09-29T13:33:35.164Z,31.4
2022-09-29T13:39:13.189Z,31.1
2022-09-29T13:44:53.800Z,30.7
2022-09-29T13:50:19.679Z,30.4
2022-09-29T13:55:42.461Z,30.1
2022-09-29T14:01:26.553Z,29.9
2022-09-29T14:07:30.581Z,29.7
2022-09-29T14:13:10.365Z,29.4
2022-09-29T14:18:49.206Z,29.3
2022-09-29T14:24:28.809Z,29.1
2022-09-29T14:30:08.258Z,29
2022-09-29T14:35:47.212Z,28.9
2022-09-29T14:41:57.102Z,28.9
2022-09-29T14:47:35.464Z,28.7
2022-09-29T14:53:13.897Z,28.6
2022-09-29T14:58:51.786Z,28.6
2022-09-29T15:04:50.142Z,28.4
2022-09-29T15:10:34.557Z,28.4
2022-09-29T15:16:12.308Z,28.3
2022-09-29T15:21:54.803Z,28.3
2022-09-29T15:27:33.343Z,28.2
2022-09-29T15:33:15.330Z,28.1
2022-09-29T15:38:55.096Z,28.1
2022-09-29T15:44:23.941Z,28.1
2022-09-29T15:50:00.856Z,28
2022-09-29T15:55:38.819Z,28
2022-09-29T16:01:05.375Z,27.9
2022-09-29T16:06:51.565Z,27.9
2022-09-29T16:12:12.923Z,27.9
2022-09-29T16:17:40.527Z,27.9
2022-09-29T16:39:15.567Z,27.8
2022-09-29T16:50:03.294Z,27.8
2022-09-29T16:56:08.243Z,27.8
2022-09-29T17:01:45.795Z,27.6
2022-09-29T17:07:12.003Z,27.5
2022-09-29T17:12:50.895Z,27.5
2022-09-29T17:18:28.690Z,27.4
2022-09-29T17:24:10.533Z,27.4
2022-09-29T17:29:33.168Z,27.4
2022-09-29T17:34:55.876Z,27.4
2022-09-29T17:40:33.890Z,27.4
2022-09-29T17:46:17.325Z,27.4
2022-09-29T17:51:59.213Z,27.4
2022-09-29T17:57:22.109Z,27.3
2022-09-29T18:02:59.465Z,27.2
2022-09-29T18:08:41.097Z,27.1
2022-09-29T18:14:03.933Z,27.1
2022-09-29T18:19:31.362Z,27
2022-09-29T18:24:53.711Z,27
2022-09-29T18:30:36.185Z,26.9
2022-09-29T18:36:17.337Z,26.9
2022-09-29T18:41:39.321Z,26.9
2022-09-29T18:47:20.452Z,26.9
2022-09-29T18:52:57.201Z,26.8
2022-09-29T18:58:23.621Z,26.8
2022-09-29T19:03:47.570Z,26.8
2022-09-29T19:09:09.457Z,26.8
2022-09-29T19:14:48.086Z,26.7
2022-09-29T19:20:26.586Z,26.6
2022-09-29T19:26:04.798Z,26.4
2022-09-29T19:31:48.014Z,26.1
2022-09-29T19:37:10.370Z,25.8
2022-09-29T19:42:49.649Z,25.6
2022-09-29T19:48:11.412Z,25.4
2022-09-29T19:53:34.614Z,25.4
2022-09-29T19:59:12.071Z,25.3
2022-09-29T20:04:50.409Z,25.2
2022-09-29T20:10:13.005Z,25.1
2022-09-29T20:15:51.300Z,25
2022-09-29T20:21:29.074Z,25
2022-09-29T20:27:07.255Z,24.9
2022-09-29T20:32:47.597Z,24.9
2022-09-29T20:38:24.341Z,24.8
2022-09-29T20:44:02.418Z,24.8
2022-09-29T20:49:39.531Z,24.7
2022-09-29T20:55:19.476Z,24.7
2022-09-29T21:00:42.258Z,24.6
2022-09-29T21:06:20.901Z,24.6
2022-09-29T21:11:59.217Z,24.6
2022-09-29T21:17:36.921Z,24.5
2022-09-29T21:23:17.419Z,24.5
2022-09-29T21:28:54.213Z,24.5
2022-09-29T21:34:32.966Z,24.4
2022-09-29T21:40:15.770Z,24.4
2022-09-29T21:45:52.517Z,24.4
2022-09-29T21:51:15.045Z,24.4
2022-09-29T21:56:52.055Z,24.3
2022-09-29T22:02:35.516Z,24.3
2022-09-29T22:08:13.696Z,24.3
2022-09-29T22:13:52.153Z,24.3
2022-09-29T22:20:11.152Z,24.3
2022-09-29T22:25:33.372Z,24.3
2022-09-29T22:31:10.599Z,24.3
2022-09-29T22:36:47.593Z,24.3
2022-09-29T22:42:25.707Z,24.3
2022-09-29T22:47:31.655Z,24.2
2022-09-29T22:52:37.973Z,24.2
2022-09-29T22:58:00.509Z,24.3
2022-09-29T23:03:07.170Z,24.2
2022-09-29T23:08:44.966Z,24.2
2022-09-29T23:14:23.149Z,24.2
2022-09-29T23:20:00.741Z,24.2
2022-09-29T23:25:37.320Z,24.2
2022-09-29T23:31:14.997Z,24.2
2022-09-29T23:36:53.806Z,24.2
2022-09-29T23:42:32.033Z,24.2
2022-09-29T23:48:10.724Z,24.2
2022-09-29T23:53:46.715Z,24.2
2022-09-29T23:59:23.796Z,24.2
